sensor_id;sensor_type;location;lat;lon;timestamp;temperature;humidity
11573;DHT22;5842;52.426;4.886;2022-10-22T00:01:31;13.40;99.90
11573;DHT22;5842;52.426;4.886;2022-10-22T00:03:58;13.40;99.90
11573;DHT22;5842;52.426;4.886;2022-10-22T00:06:25;13.40;99.90
11573;DHT22;5842;52.426;4.886;2022-10-22T00:08:53;13.40;99.90
11573;DHT22;5842;52.426;4.886;2022-10-22T00:11:22;13.50;99.90
11573;DHT22;5842;52.426;4.886;2022-10-22T00:13:49;13.50;99.90
11573;DHT22;5842;52.426;4.886;2022-10-22T00:16:16;13.50;99.90
11573;DHT22;5842;52.426;4.886;2022-10-22T00:21:11;13.50;99.90
11573;DHT22;5842;52.426;4.886;2022-10-22T00:23:39;13.60;99.90
11573;DHT22;5842;52.426;4.886;2022-10-22T00:26:07;13.60;99.90
11573;DHT22;5842;52.426;4.886;2022-10-22T00:28:36;13.60;99.90
11573;DHT22;5842;52.426;4.886;2022-10-22T00:31:03;13.50;99.90
11573;DHT22;5842;52.426;4.886;2022-10-22T00:33:30;13.60;99.90
11573;DHT22;5842;52.426;4.886;2022-10-22T00:36:00;13.50;99.90
11573;DHT22;5842;52.426;4.886;2022-10-22T00:38:28;13.50;99.90
11573;DHT22;5842;52.426;4.886;2022-10-22T00:40:55;13.50;99.90
11573;DHT22;5842;52.426;4.886;2022-10-22T00:43:22;13.50;99.90
11573;DHT22;5842;52.426;4.886;2022-10-22T00:45:50;13.50;99.90
11573;DHT22;5842;52.426;4.886;2022-10-22T00:48:20;13.50;99.90
11573;DHT22;5842;52.426;4.886;2022-10-22T00:50:49;13.50;99.90
11573;DHT22;5842;52.426;4.886;2022-10-22T00:53:22;13.60;99.90
11573;DHT22;5842;52.426;4.886;2022-10-22T00:55:51;13.60;99.90
11573;DHT22;5842;52.426;4.886;2022-10-22T00:58:19;13.60;99.90
11573;DHT22;5842;52.426;4.886;2022-10-22T01:00:49;13.60;99.90
11573;DHT22;5842;52.426;4.886;2022-10-22T01:03:17;13.70;99.90
11573;DHT22;5842;52.426;4.886;2022-10-22T01:05:52;13.60;99.90
11573;DHT22;5842;52.426;4.886;2022-10-22T01:08:25;13.60;99.90
11573;DHT22;5842;52.426;4.886;2022-10-22T01:11:03;13.70;99.90
11573;DHT22;5842;52.426;4.886;2022-10-22T01:13:40;13.70;99.90
11573;DHT22;5842;52.426;4.886;2022-10-22T01:16:16;13.70;99.90
11573;DHT22;5842;52.426;4.886;2022-10-22T01:18:48;13.80;99.90
11573;DHT22;5842;52.426;4.886;2022-10-22T01:21:25;13.90;99.90
11573;DHT22;5842;52.426;4.886;2022-10-22T01:27:14;14.10;99.90
11573;DHT22;5842;52.426;4.886;2022-10-22T01:29:50;14.10;99.90
11573;DHT22;5842;52.426;4.886;2022-10-22T01:32:20;14.10;99.90
11573;DHT22;5842;52.426;4.886;2022-10-22T01:34:51;14.20;99.90
11573;DHT22;5842;52.426;4.886;2022-10-22T01:37:21;14.30;99.90
11573;DHT22;5842;52.426;4.886;2022-10-22T01:39:49;14.40;99.90
11573;DHT22;5842;52.426;4.886;2022-10-22T01:42:17;14.30;99.90
11573;DHT22;5842;52.426;4.886;2022-10-22T01:44:45;14.40;99.90
11573;DHT22;5842;52.426;4.886;2022-10-22T01:47:20;14.40;99.90
11573;DHT22;5842;52.426;4.886;2022-10-22T01:50:15;14.40;99.90
11573;DHT22;5842;52.426;4.886;2022-10-22T01:52:55;14.40;99.90
11573;DHT22;5842;52.426;4.886;2022-10-22T01:55:28;14.40;99.90
11573;DHT22;5842;52.426;4.886;2022-10-22T01:58:03;14.40;99.90
11573;DHT22;5842;52.426;4.886;2022-10-22T02:00:36;14.40;99.90
11573;DHT22;5842;52.426;4.886;2022-10-22T02:03:09;14.40;99.90
11573;DHT22;5842;52.426;4.886;2022-10-22T02:05:39;14.40;99.90
11573;DHT22;5842;52.426;4.886;2022-10-22T02:08:12;14.50;99.90
11573;DHT22;5842;52.426;4.886;2022-10-22T02:10:43;14.50;99.90
11573;DHT22;5842;52.426;4.886;2022-10-22T02:13:15;14.60;99.90
11573;DHT22;5842;52.426;4.886;2022-10-22T02:15:45;14.60;99.90
11573;DHT22;5842;52.426;4.886;2022-10-22T02:18:15;14.60;99.90
11573;DHT22;5842;52.426;4.886;2022-10-22T02:20:43;14.50;99.90
11573;DHT22;5842;52.426;4.886;2022-10-22T02:23:11;14.50;99.90
11573;DHT22;5842;52.426;4.886;2022-10-22T02:25:41;14.60;99.90
11573;DHT22;5842;52.426;4.886;2022-10-22T02:28:14;14.60;99.90
11573;DHT22;5842;52.426;4.886;2022-10-22T02:30:46;14.60;99.90
11573;DHT22;5842;52.426;4.886;2022-10-22T02:33:19;14.60;99.90
11573;DHT22;5842;52.426;4.886;2022-10-22T02:35:48;14.50;99.90
11573;DHT22;5842;52.426;4.886;2022-10-22T02:38:18;14.50;99.90
11573;DHT22;5842;52.426;4.886;2022-10-22T02:40:46;14.30;99.90
11573;DHT22;5842;52.426;4.886;2022-10-22T02:43:13;14.20;99.90
11573;DHT22;5842;52.426;4.886;2022-10-22T02:45:40;14.20;99.90
11573;DHT22;5842;52.426;4.886;2022-10-22T02:48:08;14.20;99.90
11573;DHT22;5842;52.426;4.886;2022-10-22T02:50:36;14.20;99.90
11573;DHT22;5842;52.426;4.886;2022-10-22T02:53:04;14.20;99.90
11573;DHT22;5842;52.426;4.886;2022-10-22T02:55:31;14.20;99.90
11573;DHT22;5842;52.426;4.886;2022-10-22T02:57:59;14.20;99.90
11573;DHT22;5842;52.426;4.886;2022-10-22T03:00:27;14.20;99.90
11573;DHT22;5842;52.426;4.886;2022-10-22T03:02:54;14.10;99.90
11573;DHT22;5842;52.426;4.886;2022-10-22T03:05:21;14.00;99.90
11573;DHT22;5842;52.426;4.886;2022-10-22T03:07:50;14.00;99.90
11573;DHT22;5842;52.426;4.886;2022-10-22T03:10:17;14.00;99.90
11573;DHT22;5842;52.426;4.886;2022-10-22T03:12:44;14.00;99.90
11573;DHT22;5842;52.426;4.886;2022-10-22T03:15:13;14.00;99.90
11573;DHT22;5842;52.426;4.886;2022-10-22T03:17:40;14.00;99.90
11573;DHT22;5842;52.426;4.886;2022-10-22T03:20:09;14.00;99.90
11573;DHT22;5842;52.426;4.886;2022-10-22T03:22:38;14.00;99.90
11573;DHT22;5842;52.426;4.886;2022-10-22T03:25:11;14.10;99.90
11573;DHT22;5842;52.426;4.886;2022-10-22T03:27:40;14.10;99.90
11573;DHT22;5842;52.426;4.886;2022-10-22T03:30:08;14.00;99.90
11573;DHT22;5842;52.426;4.886;2022-10-22T03:32:36;14.10;99.90
11573;DHT22;5842;52.426;4.886;2022-10-22T03:35:04;14.10;99.90
11573;DHT22;5842;52.426;4.886;2022-10-22T03:37:33;14.10;99.90
11573;DHT22;5842;52.426;4.886;2022-10-22T03:40:02;14.10;99.90
11573;DHT22;5842;52.426;4.886;2022-10-22T03:42:31;14.10;99.90
11573;DHT22;5842;52.426;4.886;2022-10-22T03:45:02;14.10;99.90
11573;DHT22;5842;52.426;4.886;2022-10-22T03:47:29;14.10;99.90
11573;DHT22;5842;52.426;4.886;2022-10-22T03:49:56;14.00;99.90
11573;DHT22;5842;52.426;4.886;2022-10-22T03:52:23;14.10;99.90
11573;DHT22;5842;52.426;4.886;2022-10-22T03:54:50;14.00;99.90
11573;DHT22;5842;52.426;4.886;2022-10-22T03:57:17;14.00;99.90
11573;DHT22;5842;52.426;4.886;2022-10-22T03:59:46;13.90;99.90
11573;DHT22;5842;52.426;4.886;2022-10-22T04:02:15;13.90;99.90
11573;DHT22;5842;52.426;4.886;2022-10-22T04:04:43;13.90;99.90
11573;DHT22;5842;52.426;4.886;2022-10-22T04:07:10;13.90;99.90
11573;DHT22;5842;52.426;4.886;2022-10-22T04:09:37;14.00;99.90
11573;DHT22;5842;52.426;4.886;2022-10-22T04:12:05;14.00;99.90
11573;DHT22;5842;52.426;4.886;2022-10-22T04:14:32;14.00;99.90
11573;DHT22;5842;52.426;4.886;2022-10-22T04:17:01;14.00;99.90
11573;DHT22;5842;52.426;4.886;2022-10-22T04:19:28;14.00;99.90
11573;DHT22;5842;52.426;4.886;2022-10-22T04:21:57;14.10;99.90
11573;DHT22;5842;52.426;4.886;2022-10-22T04:24:28;14.00;99.90
11573;DHT22;5842;52.426;4.886;2022-10-22T04:26:56;14.00;99.90
11573;DHT22;5842;52.426;4.886;2022-10-22T04:29:23;14.00;99.90
11573;DHT22;5842;52.426;4.886;2022-10-22T04:31:51;13.90;99.90
11573;DHT22;5842;52.426;4.886;2022-10-22T04:34:19;13.90;99.90
11573;DHT22;5842;52.426;4.886;2022-10-22T04:36:47;13.90;99.90
11573;DHT22;5842;52.426;4.886;2022-10-22T04:39:14;13.90;99.90
11573;DHT22;5842;52.426;4.886;2022-10-22T04:41:41;13.80;99.90
11573;DHT22;5842;52.426;4.886;2022-10-22T04:44:08;13.80;99.90
11573;DHT22;5842;52.426;4.886;2022-10-22T04:46:35;13.90;99.90
11573;DHT22;5842;52.426;4.886;2022-10-22T04:49:03;13.90;99.90
11573;DHT22;5842;52.426;4.886;2022-10-22T04:51:32;13.90;99.90
11573;DHT22;5842;52.426;4.886;2022-10-22T04:53:59;13.90;99.90
11573;DHT22;5842;52.426;4.886;2022-10-22T04:56:28;14.00;99.90
11573;DHT22;5842;52.426;4.886;2022-10-22T04:58:57;13.90;99.90
11573;DHT22;5842;52.426;4.886;2022-10-22T05:01:27;13.90;99.90
11573;DHT22;5842;52.426;4.886;2022-10-22T05:03:56;13.90;99.90
11573;DHT22;5842;52.426;4.886;2022-10-22T05:06:24;14.00;99.90
11573;DHT22;5842;52.426;4.886;2022-10-22T05:08:55;13.90;99.90
11573;DHT22;5842;52.426;4.886;2022-10-22T05:11:24;13.90;99.90
11573;DHT22;5842;52.426;4.886;2022-10-22T05:13:52;13.90;99.90
11573;DHT22;5842;52.426;4.886;2022-10-22T05:16:20;13.80;99.90
11573;DHT22;5842;52.426;4.886;2022-10-22T05:18:47;13.80;99.90
11573;DHT22;5842;52.426;4.886;2022-10-22T05:21:16;13.70;99.90
11573;DHT22;5842;52.426;4.886;2022-10-22T05:23:45;13.70;99.90
11573;DHT22;5842;52.426;4.886;2022-10-22T05:26:16;13.70;99.90
11573;DHT22;5842;52.426;4.886;2022-10-22T05:28:44;13.60;99.90
11573;DHT22;5842;52.426;4.886;2022-10-22T05:31:12;13.60;99.90
11573;DHT22;5842;52.426;4.886;2022-10-22T05:33:40;13.50;99.90
11573;DHT22;5842;52.426;4.886;2022-10-22T05:36:09;13.50;99.90
11573;DHT22;5842;52.426;4.886;2022-10-22T05:38:38;13.50;99.90
11573;DHT22;5842;52.426;4.886;2022-10-22T05:41:07;13.40;99.90
11573;DHT22;5842;52.426;4.886;2022-10-22T05:43:37;13.30;99.90
11573;DHT22;5842;52.426;4.886;2022-10-22T05:46:07;13.20;99.90
11573;DHT22;5842;52.426;4.886;2022-10-22T05:48:35;13.20;99.90
11573;DHT22;5842;52.426;4.886;2022-10-22T05:51:03;13.20;99.90
11573;DHT22;5842;52.426;4.886;2022-10-22T05:53:31;13.20;99.90
11573;DHT22;5842;52.426;4.886;2022-10-22T05:56:02;13.20;99.90
11573;DHT22;5842;52.426;4.886;2022-10-22T05:58:29;13.20;99.90
11573;DHT22;5842;52.426;4.886;2022-10-22T06:01:02;13.20;99.90
11573;DHT22;5842;52.426;4.886;2022-10-22T06:03:30;13.20;99.90
11573;DHT22;5842;52.426;4.886;2022-10-22T06:05:59;13.20;99.90
11573;DHT22;5842;52.426;4.886;2022-10-22T06:08:27;13.10;99.90
11573;DHT22;5842;52.426;4.886;2022-10-22T06:10:55;13.10;99.90
11573;DHT22;5842;52.426;4.886;2022-10-22T06:13:22;13.20;99.90
11573;DHT22;5842;52.426;4.886;2022-10-22T06:15:50;13.20;99.90
11573;DHT22;5842;52.426;4.886;2022-10-22T06:18:19;13.30;99.90
11573;DHT22;5842;52.426;4.886;2022-10-22T06:20:46;13.40;99.90
11573;DHT22;5842;52.426;4.886;2022-10-22T06:23:14;13.40;99.90
11573;DHT22;5842;52.426;4.886;2022-10-22T06:25:41;13.50;99.90
11573;DHT22;5842;52.426;4.886;2022-10-22T06:28:09;13.50;99.90
11573;DHT22;5842;52.426;4.886;2022-10-22T06:30:36;13.60;99.90
11573;DHT22;5842;52.426;4.886;2022-10-22T06:33:03;13.60;99.90
11573;DHT22;5842;52.426;4.886;2022-10-22T06:35:32;13.70;99.90
11573;DHT22;5842;52.426;4.886;2022-10-22T06:38:00;13.70;99.90
11573;DHT22;5842;52.426;4.886;2022-10-22T06:40:27;13.70;99.90
11573;DHT22;5842;52.426;4.886;2022-10-22T06:42:58;13.80;99.90
11573;DHT22;5842;52.426;4.886;2022-10-22T06:45:25;13.80;99.90
11573;DHT22;5842;52.426;4.886;2022-10-22T06:47:52;13.80;99.90
11573;DHT22;5842;52.426;4.886;2022-10-22T06:50:20;13.90;99.90
11573;DHT22;5842;52.426;4.886;2022-10-22T06:52:49;13.90;99.90
11573;DHT22;5842;52.426;4.886;2022-10-22T06:55:16;13.90;99.90
11573;DHT22;5842;52.426;4.886;2022-10-22T06:57:43;13.90;99.90
11573;DHT22;5842;52.426;4.886;2022-10-22T07:00:11;14.00;99.90
11573;DHT22;5842;52.426;4.886;2022-10-22T07:02:39;14.00;99.90
11573;DHT22;5842;52.426;4.886;2022-10-22T07:05:07;14.00;99.90
11573;DHT22;5842;52.426;4.886;2022-10-22T07:07:35;14.00;99.90
11573;DHT22;5842;52.426;4.886;2022-10-22T07:10:05;14.10;99.90
11573;DHT22;5842;52.426;4.886;2022-10-22T07:12:33;14.10;99.90
11573;DHT22;5842;52.426;4.886;2022-10-22T07:15:00;14.20;99.90
11573;DHT22;5842;52.426;4.886;2022-10-22T07:17:27;14.20;99.90
11573;DHT22;5842;52.426;4.886;2022-10-22T07:19:54;14.30;99.90
11573;DHT22;5842;52.426;4.886;2022-10-22T07:38:14;14.60;99.90
11573;DHT22;5842;52.426;4.886;2022-10-22T07:40:41;14.60;99.90
11573;DHT22;5842;52.426;4.886;2022-10-22T07:43:08;14.50;99.90
11573;DHT22;5842;52.426;4.886;2022-10-22T07:45:35;14.60;99.90
11573;DHT22;5842;52.426;4.886;2022-10-22T07:48:02;14.70;99.90
11573;DHT22;5842;52.426;4.886;2022-10-22T07:50:30;14.70;99.90
11573;DHT22;5842;52.426;4.886;2022-10-22T07:52:57;14.80;99.90
11573;DHT22;5842;52.426;4.886;2022-10-22T07:55:25;14.80;99.90
11573;DHT22;5842;52.426;4.886;2022-10-22T07:57:53;14.80;99.90
11573;DHT22;5842;52.426;4.886;2022-10-22T08:00:20;14.80;99.90
11573;DHT22;5842;52.426;4.886;2022-10-22T08:02:48;14.80;99.90
11573;DHT22;5842;52.426;4.886;2022-10-22T08:05:15;14.90;99.90
11573;DHT22;5842;52.426;4.886;2022-10-22T08:07:42;15.00;99.90
11573;DHT22;5842;52.426;4.886;2022-10-22T08:10:11;15.10;99.90
11573;DHT22;5842;52.426;4.886;2022-10-22T08:12:40;15.20;99.90
11573;DHT22;5842;52.426;4.886;2022-10-22T08:15:08;15.20;99.90
11573;DHT22;5842;52.426;4.886;2022-10-22T08:17:37;15.30;99.90
11573;DHT22;5842;52.426;4.886;2022-10-22T08:20:05;15.40;99.90
11573;DHT22;5842;52.426;4.886;2022-10-22T08:22:32;15.50;99.90
11573;DHT22;5842;52.426;4.886;2022-10-22T08:25:02;15.50;99.90
11573;DHT22;5842;52.426;4.886;2022-10-22T08:27:29;15.60;99.90
11573;DHT22;5842;52.426;4.886;2022-10-22T08:29:58;15.60;99.90
11573;DHT22;5842;52.426;4.886;2022-10-22T08:32:25;15.60;99.90
11573;DHT22;5842;52.426;4.886;2022-10-22T08:34:52;15.40;99.90
11573;DHT22;5842;52.426;4.886;2022-10-22T08:37:20;15.30;99.90
11573;DHT22;5842;52.426;4.886;2022-10-22T08:39:47;15.30;99.90
11573;DHT22;5842;52.426;4.886;2022-10-22T08:45:18;15.20;99.90
11573;DHT22;5842;52.426;4.886;2022-10-22T08:48:03;15.10;99.90
11573;DHT22;5842;52.426;4.886;2022-10-22T08:50:36;15.00;99.90
11573;DHT22;5842;52.426;4.886;2022-10-22T08:53:10;15.00;99.90
11573;DHT22;5842;52.426;4.886;2022-10-22T08:55:39;15.00;99.90
11573;DHT22;5842;52.426;4.886;2022-10-22T08:58:13;15.00;99.90
11573;DHT22;5842;52.426;4.886;2022-10-22T09:00:53;14.90;99.90
11573;DHT22;5842;52.426;4.886;2022-10-22T09:03:44;15.00;99.90
11573;DHT22;5842;52.426;4.886;2022-10-22T09:06:18;15.20;99.90
11573;DHT22;5842;52.426;4.886;2022-10-22T09:08:47;15.30;99.90
11573;DHT22;5842;52.426;4.886;2022-10-22T09:11:24;15.40;99.90
11573;DHT22;5842;52.426;4.886;2022-10-22T09:13:53;15.60;99.90
11573;DHT22;5842;52.426;4.886;2022-10-22T09:16:29;15.70;99.90
11573;DHT22;5842;52.426;4.886;2022-10-22T09:19:07;15.80;99.90
11573;DHT22;5842;52.426;4.886;2022-10-22T09:21:45;15.90;99.90
11573;DHT22;5842;52.426;4.886;2022-10-22T09:24:23;16.00;99.90
11573;DHT22;5842;52.426;4.886;2022-10-22T09:26:52;16.00;99.90
11573;DHT22;5842;52.426;4.886;2022-10-22T09:29:30;16.00;99.90
11573;DHT22;5842;52.426;4.886;2022-10-22T09:31:59;16.20;99.90
11573;DHT22;5842;52.426;4.886;2022-10-22T09:34:27;16.60;99.90
11573;DHT22;5842;52.426;4.886;2022-10-22T09:36:58;17.00;99.90
11573;DHT22;5842;52.426;4.886;2022-10-22T09:39:28;17.20;99.90
11573;DHT22;5842;52.426;4.886;2022-10-22T09:41:58;17.40;99.90
11573;DHT22;5842;52.426;4.886;2022-10-22T09:44:25;17.40;99.90
11573;DHT22;5842;52.426;4.886;2022-10-22T09:46:55;17.30;99.90
11573;DHT22;5842;52.426;4.886;2022-10-22T09:49:23;17.40;99.90
11573;DHT22;5842;52.426;4.886;2022-10-22T09:51:54;17.60;99.90
11573;DHT22;5842;52.426;4.886;2022-10-22T09:54:26;17.70;99.90
11573;DHT22;5842;52.426;4.886;2022-10-22T09:57:04;17.90;99.90
11573;DHT22;5842;52.426;4.886;2022-10-22T09:59:35;18.20;99.90
11573;DHT22;5842;52.426;4.886;2022-10-22T10:04:40;18.70;99.90
11573;DHT22;5842;52.426;4.886;2022-10-22T10:07:15;18.80;99.90
11573;DHT22;5842;52.426;4.886;2022-10-22T10:09:43;18.90;99.90
11573;DHT22;5842;52.426;4.886;2022-10-22T10:12:18;18.90;99.90
11573;DHT22;5842;52.426;4.886;2022-10-22T10:14:56;18.80;99.90
11573;DHT22;5842;52.426;4.886;2022-10-22T10:17:31;18.50;99.90
11573;DHT22;5842;52.426;4.886;2022-10-22T10:20:15;18.30;99.90
11573;DHT22;5842;52.426;4.886;2022-10-22T10:22:54;18.00;99.90
11573;DHT22;5842;52.426;4.886;2022-10-22T10:25:45;18.00;99.90
11573;DHT22;5842;52.426;4.886;2022-10-22T10:28:22;18.00;99.90
11573;DHT22;5842;52.426;4.886;2022-10-22T10:30:55;18.00;99.90
11573;DHT22;5842;52.426;4.886;2022-10-22T10:33:32;18.20;99.90
11573;DHT22;5842;52.426;4.886;2022-10-22T10:36:07;18.20;99.90
11573;DHT22;5842;52.426;4.886;2022-10-22T10:38:43;18.20;99.90
11573;DHT22;5842;52.426;4.886;2022-10-22T10:41:17;18.30;99.90
11573;DHT22;5842;52.426;4.886;2022-10-22T10:44:08;18.50;99.90
11573;DHT22;5842;52.426;4.886;2022-10-22T10:46:42;18.60;99.90
11573;DHT22;5842;52.426;4.886;2022-10-22T10:49:19;18.70;99.90
11573;DHT22;5842;52.426;4.886;2022-10-22T10:51:56;18.70;99.90
11573;DHT22;5842;52.426;4.886;2022-10-22T10:54:39;18.80;99.90
11573;DHT22;5842;52.426;4.886;2022-10-22T10:57:15;19.00;99.90
11573;DHT22;5842;52.426;4.886;2022-10-22T10:59:57;19.50;99.90
11573;DHT22;5842;52.426;4.886;2022-10-22T11:02:49;19.70;99.90
11573;DHT22;5842;52.426;4.886;2022-10-22T11:05:29;19.30;99.90
11573;DHT22;5842;52.426;4.886;2022-10-22T11:08:00;18.90;99.90
11573;DHT22;5842;52.426;4.886;2022-10-22T11:10:32;18.40;99.90
11573;DHT22;5842;52.426;4.886;2022-10-22T11:13:07;18.20;99.90
11573;DHT22;5842;52.426;4.886;2022-10-22T11:15:36;18.10;99.90
11573;DHT22;5842;52.426;4.886;2022-10-22T11:18:13;18.10;99.90
11573;DHT22;5842;52.426;4.886;2022-10-22T11:20:54;17.90;99.90
11573;DHT22;5842;52.426;4.886;2022-10-22T11:23:29;17.60;99.90
11573;DHT22;5842;52.426;4.886;2022-10-22T11:25:59;17.50;99.90
11573;DHT22;5842;52.426;4.886;2022-10-22T11:28:31;17.40;99.90
11573;DHT22;5842;52.426;4.886;2022-10-22T11:31:03;17.40;99.90
11573;DHT22;5842;52.426;4.886;2022-10-22T11:33:36;17.50;99.90
11573;DHT22;5842;52.426;4.886;2022-10-22T11:36:06;17.50;99.90
11573;DHT22;5842;52.426;4.886;2022-10-22T11:38:35;17.70;99.90
11573;DHT22;5842;52.426;4.886;2022-10-22T11:41:06;18.10;99.90
11573;DHT22;5842;52.426;4.886;2022-10-22T11:43:55;18.40;99.90
11573;DHT22;5842;52.426;4.886;2022-10-22T11:46:34;18.70;99.90
11573;DHT22;5842;52.426;4.886;2022-10-22T11:49:16;18.90;99.90
11573;DHT22;5842;52.426;4.886;2022-10-22T11:51:44;19.20;99.90
11573;DHT22;5842;52.426;4.886;2022-10-22T11:54:39;19.40;99.90
11573;DHT22;5842;52.426;4.886;2022-10-22T11:57:21;19.70;99.90
11573;DHT22;5842;52.426;4.886;2022-10-22T11:59:53;19.80;99.90
11573;DHT22;5842;52.426;4.886;2022-10-22T12:02:31;20.00;99.90
11573;DHT22;5842;52.426;4.886;2022-10-22T12:08:30;20.00;99.90
11573;DHT22;5842;52.426;4.886;2022-10-22T12:11:13;19.80;99.90
11573;DHT22;5842;52.426;4.886;2022-10-22T12:13:55;19.70;99.90
11573;DHT22;5842;52.426;4.886;2022-10-22T12:16:34;19.50;99.90
11573;DHT22;5842;52.426;4.886;2022-10-22T12:19:04;19.30;99.90
11573;DHT22;5842;52.426;4.886;2022-10-22T12:21:33;19.10;99.90
11573;DHT22;5842;52.426;4.886;2022-10-22T12:24:02;19.00;99.90
11573;DHT22;5842;52.426;4.886;2022-10-22T12:26:31;18.90;99.90
11573;DHT22;5842;52.426;4.886;2022-10-22T12:29:01;18.80;99.90
11573;DHT22;5842;52.426;4.886;2022-10-22T12:31:35;18.60;99.90
11573;DHT22;5842;52.426;4.886;2022-10-22T12:34:02;18.40;99.90
11573;DHT22;5842;52.426;4.886;2022-10-22T12:36:33;18.30;99.90
11573;DHT22;5842;52.426;4.886;2022-10-22T12:39:01;18.20;99.90
11573;DHT22;5842;52.426;4.886;2022-10-22T12:41:32;18.10;99.90
11573;DHT22;5842;52.426;4.886;2022-10-22T12:44:00;18.10;99.90
11573;DHT22;5842;52.426;4.886;2022-10-22T12:46:29;18.10;99.90
11573;DHT22;5842;52.426;4.886;2022-10-22T12:48:59;18.30;99.90
11573;DHT22;5842;52.426;4.886;2022-10-22T12:51:27;18.40;99.90
11573;DHT22;5842;52.426;4.886;2022-10-22T12:53:56;18.50;99.90
11573;DHT22;5842;52.426;4.886;2022-10-22T12:56:26;18.60;99.90
11573;DHT22;5842;52.426;4.886;2022-10-22T12:58:58;18.60;99.90
11573;DHT22;5842;52.426;4.886;2022-10-22T13:01:27;18.50;99.90
11573;DHT22;5842;52.426;4.886;2022-10-22T13:04:05;18.60;99.90
11573;DHT22;5842;52.426;4.886;2022-10-22T13:06:33;18.70;99.90
11573;DHT22;5842;52.426;4.886;2022-10-22T13:09:06;18.80;99.90
11573;DHT22;5842;52.426;4.886;2022-10-22T13:11:39;18.70;99.90
11573;DHT22;5842;52.426;4.886;2022-10-22T13:14:18;18.50;99.90
11573;DHT22;5842;52.426;4.886;2022-10-22T13:17:10;18.30;99.90
11573;DHT22;5842;52.426;4.886;2022-10-22T13:19:42;18.30;99.90
11573;DHT22;5842;52.426;4.886;2022-10-22T13:22:25;18.20;99.90
11573;DHT22;5842;52.426;4.886;2022-10-22T13:24:53;18.10;99.90
11573;DHT22;5842;52.426;4.886;2022-10-22T13:27:23;18.00;99.90
11573;DHT22;5842;52.426;4.886;2022-10-22T13:29:53;17.90;99.90
11573;DHT22;5842;52.426;4.886;2022-10-22T13:32:26;17.80;99.90
11573;DHT22;5842;52.426;4.886;2022-10-22T13:34:55;17.70;99.90
11573;DHT22;5842;52.426;4.886;2022-10-22T13:37:23;17.60;99.90
11573;DHT22;5842;52.426;4.886;2022-10-22T13:39:52;17.50;99.90
11573;DHT22;5842;52.426;4.886;2022-10-22T13:42:19;17.40;99.90
11573;DHT22;5842;52.426;4.886;2022-10-22T13:44:46;17.30;99.90
11573;DHT22;5842;52.426;4.886;2022-10-22T13:47:26;17.30;99.90
11573;DHT22;5842;52.426;4.886;2022-10-22T13:49:55;17.20;99.90
11573;DHT22;5842;52.426;4.886;2022-10-22T13:52:36;17.10;99.90
11573;DHT22;5842;52.426;4.886;2022-10-22T13:55:12;17.10;99.90
11573;DHT22;5842;52.426;4.886;2022-10-22T13:57:40;17.00;99.90
11573;DHT22;5842;52.426;4.886;2022-10-22T14:00:11;17.00;99.90
11573;DHT22;5842;52.426;4.886;2022-10-22T14:02:40;17.00;99.90
11573;DHT22;5842;52.426;4.886;2022-10-22T14:05:08;16.90;99.90
11573;DHT22;5842;52.426;4.886;2022-10-22T14:07:37;16.90;99.90
11573;DHT22;5842;52.426;4.886;2022-10-22T14:10:16;16.90;99.90
11573;DHT22;5842;52.426;4.886;2022-10-22T14:12:44;16.80;99.90
11573;DHT22;5842;52.426;4.886;2022-10-22T14:15:12;16.80;99.90
11573;DHT22;5842;52.426;4.886;2022-10-22T14:17:43;16.70;99.90
11573;DHT22;5842;52.426;4.886;2022-10-22T14:20:15;16.70;99.90
11573;DHT22;5842;52.426;4.886;2022-10-22T14:22:44;16.60;99.90
11573;DHT22;5842;52.426;4.886;2022-10-22T14:25:14;16.60;99.90
11573;DHT22;5842;52.426;4.886;2022-10-22T14:27:41;16.50;99.90
11573;DHT22;5842;52.426;4.886;2022-10-22T14:30:12;16.50;99.90
11573;DHT22;5842;52.426;4.886;2022-10-22T14:32:42;16.40;99.90
11573;DHT22;5842;52.426;4.886;2022-10-22T14:35:11;16.30;99.90
11573;DHT22;5842;52.426;4.886;2022-10-22T14:37:39;16.30;99.90
11573;DHT22;5842;52.426;4.886;2022-10-22T14:40:12;16.20;99.90
11573;DHT22;5842;52.426;4.886;2022-10-22T14:42:42;16.20;99.90
11573;DHT22;5842;52.426;4.886;2022-10-22T14:45:15;16.10;99.90
11573;DHT22;5842;52.426;4.886;2022-10-22T14:47:44;16.10;99.90
11573;DHT22;5842;52.426;4.886;2022-10-22T14:50:11;16.00;99.90
11573;DHT22;5842;52.426;4.886;2022-10-22T14:52:39;15.90;99.90
11573;DHT22;5842;52.426;4.886;2022-10-22T14:55:08;15.80;99.90
11573;DHT22;5842;52.426;4.886;2022-10-22T14:57:35;15.80;99.90
11573;DHT22;5842;52.426;4.886;2022-10-22T15:00:06;15.70;99.90
11573;DHT22;5842;52.426;4.886;2022-10-22T15:02:34;15.60;99.90
11573;DHT22;5842;52.426;4.886;2022-10-22T15:05:03;15.60;99.90
11573;DHT22;5842;52.426;4.886;2022-10-22T15:07:30;15.60;99.90
11573;DHT22;5842;52.426;4.886;2022-10-22T15:09:58;15.70;99.90
11573;DHT22;5842;52.426;4.886;2022-10-22T15:12:25;15.70;99.90
11573;DHT22;5842;52.426;4.886;2022-10-22T15:14:52;15.80;99.90
11573;DHT22;5842;52.426;4.886;2022-10-22T15:17:20;15.80;99.90
11573;DHT22;5842;52.426;4.886;2022-10-22T15:19:47;15.90;99.90
11573;DHT22;5842;52.426;4.886;2022-10-22T15:22:15;15.90;99.90
11573;DHT22;5842;52.426;4.886;2022-10-22T15:24:44;16.00;99.90
11573;DHT22;5842;52.426;4.886;2022-10-22T15:27:13;16.00;99.90
11573;DHT22;5842;52.426;4.886;2022-10-22T15:29:41;16.00;99.90
11573;DHT22;5842;52.426;4.886;2022-10-22T15:32:09;16.00;99.90
11573;DHT22;5842;52.426;4.886;2022-10-22T15:34:37;16.00;99.90
11573;DHT22;5842;52.426;4.886;2022-10-22T15:37:07;16.10;99.90
11573;DHT22;5842;52.426;4.886;2022-10-22T15:39:38;16.00;99.90
11573;DHT22;5842;52.426;4.886;2022-10-22T15:42:05;16.00;99.90
11573;DHT22;5842;52.426;4.886;2022-10-22T15:44:32;15.90;99.90
11573;DHT22;5842;52.426;4.886;2022-10-22T15:47:01;15.90;99.90
11573;DHT22;5842;52.426;4.886;2022-10-22T15:49:31;15.80;99.90
11573;DHT22;5842;52.426;4.886;2022-10-22T15:51:59;15.70;99.90
11573;DHT22;5842;52.426;4.886;2022-10-22T15:54:28;15.60;99.90
11573;DHT22;5842;52.426;4.886;2022-10-22T15:56:59;15.50;99.90
11573;DHT22;5842;52.426;4.886;2022-10-22T15:59:28;15.40;99.90
11573;DHT22;5842;52.426;4.886;2022-10-22T16:01:56;15.30;99.90
11573;DHT22;5842;52.426;4.886;2022-10-22T16:04:23;15.10;99.90
11573;DHT22;5842;52.426;4.886;2022-10-22T16:06:51;15.10;99.90
11573;DHT22;5842;52.426;4.886;2022-10-22T16:09:20;14.90;99.90
11573;DHT22;5842;52.426;4.886;2022-10-22T16:11:48;14.90;99.90
11573;DHT22;5842;52.426;4.886;2022-10-22T16:14:18;14.80;99.90
11573;DHT22;5842;52.426;4.886;2022-10-22T16:16:47;14.60;99.90
11573;DHT22;5842;52.426;4.886;2022-10-22T16:19:16;14.50;99.90
11573;DHT22;5842;52.426;4.886;2022-10-22T16:21:44;14.30;99.90
11573;DHT22;5842;52.426;4.886;2022-10-22T16:24:11;14.20;99.90
11573;DHT22;5842;52.426;4.886;2022-10-22T16:26:38;14.20;99.90
11573;DHT22;5842;52.426;4.886;2022-10-22T16:29:05;14.00;99.90
11573;DHT22;5842;52.426;4.886;2022-10-22T16:31:34;14.00;99.90
11573;DHT22;5842;52.426;4.886;2022-10-22T16:34:01;13.90;99.90
11573;DHT22;5842;52.426;4.886;2022-10-22T16:36:29;13.80;99.90